Time;durP1;ratioP1;P1;durP2;ratioP2;P2;SDS_P1;SDS_P2;PMS_P1;PMS_P2;Temp;Humidity;BMP_temperature;BMP_pressure;BME280_temperature;BME280_humidity;BME280_pressure;Samples;Min_cycle;Max_cycle;Signal;HPM_P1;HPM_P2
2022/11/03 00:00:32;;;;;;;9.48;2.85;;;8.70;99.90;;;;;;4964470;28;20030;-67
2022/11/03 00:02:58;;;;;;;4.65;2.45;;;8.50;99.90;;;;;;4964889;28;20030;-69
2022/11/03 00:08:07;;;;;;;8.52;3.55;;;8.40;99.90;;;;;;4981565;28;20034;-69
2022/11/03 00:10:33;;;;;;;10.93;3.08;;;8.50;99.90;;;;;;4963446;28;20027;-67
2022/11/03 00:12:58;;;;;;;10.45;3.20;;;8.60;99.90;;;;;;4961830;28;20023;-66
2022/11/03 00:15:24;;;;;;;17.75;3.45;;;8.50;99.90;;;;;;4962561;28;20116;-64
2022/11/03 00:17:49;;;;;;;14.60;3.03;;;8.50;99.90;;;;;;4962314;28;20038;-64
2022/11/03 00:20:15;;;;;;;7.55;2.80;;;8.50;99.90;;;;;;4963948;28;20030;-64
2022/11/03 00:22:40;;;;;;;4.65;2.08;;;8.50;99.90;;;;;;4963738;28;20031;-64
2022/11/03 00:25:06;;;;;;;15.63;3.78;;;8.40;99.90;;;;;;4963905;28;20098;-64
2022/11/03 00:27:32;;;;;;;9.23;2.17;;;8.50;99.90;;;;;;4964495;28;20050;-64
2022/11/03 00:29:57;;;;;;;12.38;3.63;;;8.80;99.90;;;;;;4964305;28;20023;-64
2022/11/03 00:32:23;;;;;;;9.75;3.03;;;9.00;99.90;;;;;;4980729;28;20027;-63
2022/11/03 00:34:48;;;;;;;9.30;2.70;;;9.20;99.90;;;;;;4963890;28;20035;-64
2022/11/03 00:37:14;;;;;;;10.80;2.72;;;9.30;99.90;;;;;;4962781;28;20037;-64
2022/11/03 00:39:39;;;;;;;10.05;3.20;;;9.30;99.90;;;;;;4978965;28;20031;-65
2022/11/03 00:42:05;;;;;;;8.75;2.55;;;9.30;99.90;;;;;;4959501;28;20029;-65
2022/11/03 00:44:30;;;;;;;9.43;2.85;;;9.20;99.90;;;;;;4957531;28;20037;-65
2022/11/03 00:46:56;;;;;;;12.82;3.25;;;9.30;99.90;;;;;;4957992;28;20027;-65
2022/11/03 00:49:21;;;;;;;9.13;2.40;;;9.20;99.90;;;;;;4958675;28;20041;-65
2022/11/03 00:51:47;;;;;;;15.95;2.70;;;9.20;99.90;;;;;;4974613;28;20073;-65
2022/11/03 00:54:12;;;;;;;10.75;2.80;;;9.20;99.90;;;;;;4957216;28;20025;-65
2022/11/03 00:56:40;;;;;;;5.25;2.30;;;9.30;99.90;;;;;;4957305;28;20039;-65
2022/11/03 00:59:08;;;;;;;9.15;2.58;;;9.30;99.90;;;;;;4978485;28;20027;-65
2022/11/03 01:01:39;;;;;;;5.32;2.08;;;9.40;99.90;;;;;;4959729;28;20054;-65
2022/11/03 01:06:53;;;;;;;10.32;2.20;;;9.90;99.90;;;;;;4974798;28;20556;-65
2022/11/03 01:09:27;;;;;;;8.50;3.05;;;10.10;99.90;;;;;;4957469;28;20023;-65
2022/11/03 01:11:58;;;;;;;11.57;2.67;;;10.20;99.90;;;;;;4977196;28;20062;-65
2022/11/03 01:14:27;;;;;;;8.23;1.85;;;10.10;99.90;;;;;;4958709;28;20027;-65
2022/11/03 01:16:52;;;;;;;8.93;2.35;;;10.30;99.90;;;;;;4958229;28;20498;-65
2022/11/03 01:19:18;;;;;;;7.82;2.80;;;10.30;99.90;;;;;;4958429;28;20042;-65
2022/11/03 01:21:44;;;;;;;9.05;2.22;;;10.40;99.90;;;;;;4975531;28;20050;-65
2022/11/03 01:24:09;;;;;;;9.52;2.00;;;10.40;99.90;;;;;;4958608;28;20034;-65
2022/11/03 01:26:35;;;;;;;9.55;2.33;;;10.40;99.90;;;;;;4958241;28;20038;-65
2022/11/03 01:29:00;;;;;;;13.18;2.30;;;10.30;99.90;;;;;;4959580;28;20038;-65
2022/11/03 01:31:27;;;;;;;11.52;3.47;;;10.30;99.90;;;;;;4975953;28;20019;-65
2022/11/03 01:33:54;;;;;;;13.48;2.72;;;10.30;99.90;;;;;;4957884;28;20018;-65
2022/11/03 01:36:20;;;;;;;6.82;2.15;;;10.40;99.90;;;;;;4976731;28;20023;-65
2022/11/03 01:38:46;;;;;;;6.03;2.45;;;10.40;99.90;;;;;;4962902;28;20188;-65
2022/11/03 01:41:18;;;;;;;13.50;2.55;;;10.60;99.90;;;;;;4975540;28;20031;-65
2022/11/03 01:43:44;;;;;;;10.25;2.30;;;10.70;99.90;;;;;;4976326;28;20427;-65
2022/11/03 01:46:09;;;;;;;12.65;2.50;;;10.80;99.90;;;;;;4958799;28;20058;-66
2022/11/03 01:48:39;;;;;;;14.73;3.17;;;10.70;99.90;;;;;;4958986;28;20082;-65
2022/11/03 01:51:07;;;;;;;12.65;2.42;;;10.60;99.90;;;;;;4975977;28;20027;-65
2022/11/03 01:53:34;;;;;;;6.55;2.30;;;10.60;99.90;;;;;;4958370;28;20023;-65
2022/11/03 01:56:01;;;;;;;9.82;2.35;;;10.60;99.90;;;;;;4960162;28;20035;-65
2022/11/03 01:58:34;;;;;;;15.93;2.50;;;10.60;99.90;;;;;;4958441;28;20122;-65
2022/11/03 02:01:01;;;;;;;10.90;2.83;;;10.50;99.90;;;;;;4976772;28;20030;-65
2022/11/03 02:03:32;;;;;;;13.77;2.78;;;10.40;99.90;;;;;;4959362;28;20114;-65
2022/11/03 02:05:57;;;;;;;8.93;2.17;;;10.50;99.90;;;;;;4959199;28;20027;-65
2022/11/03 02:08:35;;;;;;;9.23;2.35;;;10.40;99.90;;;;;;4976807;28;20532;-65
2022/11/03 02:12:05;;;;;;;12.40;2.25;;;10.20;99.90;;;;;;4959978;28;20027;-65
2022/11/03 02:13:46;;;;;;;9.60;2.22;;;10.20;99.90;;;;;;4980065;28;20026;-65
2022/11/03 02:16:12;;;;;;;11.18;2.40;;;10.20;99.90;;;;;;4980118;28;20030;-65
2022/11/03 02:18:39;;;;;;;8.85;2.53;;;10.30;99.90;;;;;;4980344;28;20033;-65
2022/11/03 02:21:16;;;;;;;15.93;3.25;;;10.40;99.90;;;;;;4962616;28;20054;-65
2022/11/03 02:23:51;;;;;;;12.50;2.40;;;10.50;99.90;;;;;;4962786;28;20027;-65
2022/11/03 02:26:17;;;;;;;5.97;2.00;;;10.50;99.90;;;;;;4977569;28;20402;-65
2022/11/03 02:28:43;;;;;;;11.95;2.42;;;10.50;99.90;;;;;;4960581;28;20037;-65
2022/11/03 02:31:32;;;;;;;6.85;2.38;;;10.60;99.90;;;;;;4962148;28;20038;-65
2022/11/03 02:34:17;;;;;;;5.32;2.60;;;10.70;99.90;;;;;;4959763;28;20027;-65
2022/11/03 02:36:58;;;;;;;9.50;1.98;;;10.60;99.90;;;;;;4959585;28;20027;-65
2022/11/03 02:39:34;;;;;;;4.55;2.25;;;10.70;99.90;;;;;;4960578;28;20058;-65
2022/11/03 02:42:02;;;;;;;5.47;2.17;;;10.70;99.90;;;;;;4959513;28;20031;-65
2022/11/03 02:44:31;;;;;;;13.82;2.88;;;10.70;99.90;;;;;;4959446;28;20027;-65
2022/11/03 02:47:00;;;;;;;11.30;2.85;;;10.70;99.90;;;;;;4959979;28;20022;-65
2022/11/03 02:49:26;;;;;;;8.38;2.20;;;10.70;99.90;;;;;;4959417;28;20030;-65
2022/11/03 02:52:02;;;;;;;8.23;1.92;;;10.70;99.90;;;;;;4976979;28;20096;-66
2022/11/03 02:54:33;;;;;;;8.15;2.10;;;10.60;99.90;;;;;;4959312;28;20026;-65
2022/11/03 02:57:08;;;;;;;7.35;1.92;;;10.60;99.90;;;;;;4976666;28;20081;-65
2022/11/03 02:59:44;;;;;;;7.50;2.00;;;10.60;99.90;;;;;;4959367;28;20034;-65
2022/11/03 03:02:16;;;;;;;17.45;2.78;;;10.70;99.90;;;;;;4959096;28;20541;-65
2022/11/03 03:04:48;;;;;;;9.30;2.92;;;10.60;99.90;;;;;;4959302;28;20026;-65
2022/11/03 03:07:20;;;;;;;;;;;10.70;99.90;;;;;;4960085;28;20030;-65
2022/11/03 03:09:49;;;;;;;6.57;1.88;;;10.80;99.90;;;;;;4959345;28;19913;-65
2022/11/03 03:12:17;;;;;;;9.45;2.55;;;10.40;99.90;;;;;;4958922;28;20022;-65
2022/11/03 03:14:45;;;;;;;9.13;2.15;;;10.30;99.90;;;;;;4958913;28;20045;-65
2022/11/03 03:17:11;;;;;;;14.18;2.38;;;10.40;99.90;;;;;;4976471;28;20032;-65
2022/11/03 03:19:55;;;;;;;6.68;1.70;;;10.50;99.90;;;;;;4959623;28;20031;-65
2022/11/03 03:22:26;;;;;;;10.77;2.08;;;10.50;99.90;;;;;;4959062;28;20030;-65
2022/11/03 03:24:55;;;;;;;10.50;2.20;;;10.50;99.90;;;;;;4958899;28;20034;-65
2022/11/03 03:27:25;;;;;;;15.48;2.13;;;10.50;99.90;;;;;;4958924;28;20125;-65
2022/11/03 03:29:56;;;;;;;10.90;2.78;;;10.30;99.90;;;;;;4959649;28;20019;-65
2022/11/03 03:32:24;;;;;;;12.52;2.42;;;10.30;99.90;;;;;;4959569;28;20073;-65
2022/11/03 03:34:52;;;;;;;12.07;2.38;;;10.30;99.90;;;;;;4975959;28;20027;-65
2022/11/03 03:37:19;;;;;;;8.75;2.33;;;10.10;99.90;;;;;;4958517;28;20030;-65
2022/11/03 03:39:51;;;;;;;7.75;1.92;;;10.20;99.90;;;;;;4958464;28;20050;-65
2022/11/03 03:42:19;;;;;;;12.05;1.95;;;10.20;99.90;;;;;;4976227;28;20034;-65
2022/11/03 03:44:46;;;;;;;9.38;2.22;;;10.20;99.90;;;;;;4958777;28;20030;-65
2022/11/03 03:47:23;;;;;;;15.45;2.67;;;10.20;99.90;;;;;;4958333;28;20039;-65
2022/11/03 03:49:48;;;;;;;13.05;2.60;;;10.20;99.90;;;;;;4958377;28;20470;-65
2022/11/03 03:52:14;;;;;;;12.10;2.33;;;10.20;99.90;;;;;;4959099;28;20081;-65
2022/11/03 03:54:40;;;;;;;10.98;2.53;;;10.30;99.90;;;;;;4975523;28;20031;-65
2022/11/03 03:57:11;;;;;;;9.90;2.50;;;10.30;99.90;;;;;;4958362;28;20038;-65
2022/11/03 03:59:36;;;;;;;11.77;2.13;;;10.40;99.90;;;;;;4958954;28;20030;-65
2022/11/03 04:02:02;;;;;;;8.65;2.22;;;10.50;99.90;;;;;;4958414;28;20029;-65
2022/11/03 04:04:27;;;;;;;8.93;2.60;;;10.50;99.90;;;;;;4958092;28;20018;-65
2022/11/03 04:07:45;;;;;;;9.98;2.38;;;10.50;99.90;;;;;;4957807;28;20027;-65
2022/11/03 04:09:38;;;;;;;9.32;2.83;;;10.40;99.90;;;;;;4975142;28;20034;-65
2022/11/03 04:23:01;;;;;;;5.70;2.20;;;10.00;99.90;;;;;;4975116;28;20046;-65
2022/11/03 04:25:26;;;;;;;9.88;2.17;;;9.90;99.90;;;;;;4958576;28;20026;-65
2022/11/03 04:27:52;;;;;;;9.98;2.97;;;9.70;99.90;;;;;;4957875;28;20097;-65
2022/11/03 04:30:19;;;;;;;15.95;2.63;;;9.80;99.90;;;;;;4958538;28;20026;-65
2022/11/03 04:32:49;;;;;;;9.82;2.53;;;9.80;99.90;;;;;;4957612;28;20109;-65
2022/11/03 04:35:20;;;;;;;13.65;2.90;;;9.90;99.90;;;;;;4974326;28;20023;-65
2022/11/03 04:38:02;;;;;;;6.68;2.85;;;9.90;99.90;;;;;;4958017;28;20022;-65
2022/11/03 04:40:27;;;;;;;10.65;2.35;;;9.80;99.90;;;;;;4958406;28;20031;-65
2022/11/03 04:42:54;;;;;;;9.32;2.55;;;9.80;99.90;;;;;;4957353;28;20085;-65
2022/11/03 04:45:28;;;;;;;10.20;3.67;;;9.70;99.90;;;;;;4974748;28;20027;-65
2022/11/03 04:47:54;;;;;;;14.18;3.00;;;9.70;99.90;;;;;;4974702;28;20034;-65
2022/11/03 04:50:22;;;;;;;8.40;2.88;;;9.60;99.90;;;;;;4958522;28;20023;-65
2022/11/03 04:52:53;;;;;;;14.82;2.70;;;9.60;99.90;;;;;;4957662;28;20023;-65
2022/11/03 04:55:19;;;;;;;9.13;2.33;;;9.50;99.90;;;;;;4958212;28;20033;-65
2022/11/03 04:57:45;;;;;;;14.27;2.45;;;9.40;99.90;;;;;;4957186;28;20313;-65
2022/11/03 05:00:18;;;;;;;9.32;2.42;;;9.40;99.90;;;;;;4957248;28;20105;-65
2022/11/03 05:02:45;;;;;;;14.70;2.30;;;9.30;99.90;;;;;;4957230;28;20161;-65
2022/11/03 05:05:20;;;;;;;10.20;3.00;;;9.30;99.90;;;;;;4957223;28;20490;-65
2022/11/03 05:07:48;;;;;;;11.73;3.05;;;9.30;99.90;;;;;;4957382;28;20031;-65
2022/11/03 05:10:20;;;;;;;8.80;2.80;;;9.30;99.90;;;;;;4957150;28;20070;-65
2022/11/03 05:12:47;;;;;;;12.02;3.13;;;9.20;99.90;;;;;;4958057;28;20019;-65
2022/11/03 05:15:28;;;;;;;9.68;2.47;;;9.10;99.90;;;;;;4957599;28;20023;-66
2022/11/03 05:17:55;;;;;;;6.72;2.45;;;9.10;99.90;;;;;;4957024;28;20061;-67
2022/11/03 05:20:43;;;;;;;11.23;2.38;;;9.10;99.90;;;;;;4974432;28;20034;-67
2022/11/03 05:23:10;;;;;;;5.70;2.50;;;9.00;99.90;;;;;;4974448;28;20033;-67
2022/11/03 05:25:49;;;;;;;12.57;3.22;;;9.00;99.90;;;;;;4956984;28;20030;-67
2022/11/03 05:28:33;;;;;;;8.45;2.88;;;9.10;99.90;;;;;;4957103;28;20165;-67
2022/11/03 05:30:59;;;;;;;6.68;2.42;;;9.10;99.90;;;;;;4957316;28;20540;-67
2022/11/03 05:33:35;;;;;;;12.02;2.88;;;9.10;99.90;;;;;;4956894;28;20026;-67
2022/11/03 05:36:15;;;;;;;7.93;2.83;;;9.10;99.90;;;;;;4956734;28;20023;-67
2022/11/03 05:38:41;;;;;;;11.77;3.03;;;9.00;99.90;;;;;;4974266;28;20050;-67
2022/11/03 05:41:22;;;;;;;12.05;3.00;;;9.10;99.90;;;;;;4974486;28;20406;-67
2022/11/03 05:44:00;;;;;;;10.20;3.40;;;9.10;99.90;;;;;;4974257;28;20019;-67
2022/11/03 05:46:30;;;;;;;13.02;3.70;;;9.10;99.90;;;;;;4958007;28;20548;-67
2022/11/03 05:48:56;;;;;;;10.45;3.00;;;9.00;99.90;;;;;;4977862;28;20019;-67
2022/11/03 05:51:26;;;;;;;11.52;3.03;;;9.00;99.90;;;;;;4977849;28;20023;-67
2022/11/03 05:53:59;;;;;;;11.85;3.53;;;9.00;99.90;;;;;;4978142;28;20047;-67
2022/11/03 05:56:24;;;;;;;9.75;3.05;;;9.00;99.90;;;;;;4961052;28;20066;-67
2022/11/03 05:58:53;;;;;;;13.32;2.85;;;9.00;99.90;;;;;;4960369;28;20065;-67
2022/11/03 06:01:34;;;;;;;12.43;3.63;;;8.90;99.90;;;;;;4977561;28;20081;-67
2022/11/03 06:04:03;;;;;;;9.73;3.20;;;8.80;99.90;;;;;;4960222;28;20084;-67
2022/11/03 06:06:34;;;;;;;10.48;3.75;;;8.80;99.90;;;;;;4960896;28;20122;-67
2022/11/03 06:09:10;;;;;;;10.77;2.83;;;8.70;99.90;;;;;;4960733;28;20109;-67
2022/11/03 06:11:36;;;;;;;11.00;3.65;;;8.60;99.90;;;;;;4977767;28;20022;-67
2022/11/03 06:14:16;;;;;;;14.63;3.20;;;8.80;99.90;;;;;;4960091;28;20022;-67
2022/11/03 06:16:46;;;;;;;11.57;3.08;;;8.70;99.90;;;;;;4977579;28;20038;-67
2022/11/03 06:19:21;;;;;;;9.00;3.60;;;8.90;99.90;;;;;;4960333;28;20034;-67
2022/11/03 06:21:48;;;;;;;8.50;3.15;;;9.00;99.90;;;;;;4959937;28;20023;-67
2022/11/03 06:24:16;;;;;;;15.45;3.05;;;8.90;99.90;;;;;;4977177;28;20031;-67
2022/11/03 06:26:43;;;;;;;11.68;3.80;;;8.90;99.90;;;;;;4977223;28;20390;-67
2022/11/03 06:29:14;;;;;;;13.95;3.95;;;8.90;99.90;;;;;;4959719;28;20090;-67
2022/11/03 06:31:40;;;;;;;10.32;3.83;;;8.80;99.90;;;;;;4977678;28;20031;-67
2022/11/03 06:34:28;;;;;;;11.65;2.92;;;8.70;99.90;;;;;;4959998;28;20037;-67
2022/11/03 06:36:56;;;;;;;10.18;2.88;;;8.50;99.90;;;;;;4959529;28;20097;-67
2022/11/03 06:39:23;;;;;;;11.10;3.33;;;8.50;99.90;;;;;;4960474;28;20027;-67
2022/11/03 06:41:48;;;;;;;12.07;3.33;;;8.50;99.90;;;;;;4960336;28;20030;-67
2022/11/03 06:44:24;;;;;;;9.98;3.38;;;8.60;99.90;;;;;;4959841;28;20023;-67
2022/11/03 06:47:05;;;;;;;14.43;3.85;;;8.70;99.90;;;;;;4959214;28;20027;-67
2022/11/03 06:49:33;;;;;;;9.35;3.03;;;8.70;99.90;;;;;;4977057;28;20023;-67
2022/11/03 06:52:16;;;;;;;19.50;4.28;;;8.90;99.90;;;;;;4959229;28;20031;-67
2022/11/03 06:54:42;;;;;;;15.15;3.45;;;9.00;99.90;;;;;;4976599;28;20030;-67
2022/11/03 06:57:13;;;;;;;9.20;3.13;;;9.10;99.90;;;;;;4976339;28;20049;-67
2022/11/03 06:59:39;;;;;;;7.78;3.65;;;9.10;99.90;;;;;;4958706;28;20027;-67
2022/11/03 07:02:48;;;;;;;13.70;3.10;;;9.10;99.90;;;;;;4977044;28;20105;-67
2022/11/03 07:05:21;;;;;;;11.30;3.28;;;9.10;99.90;;;;;;4901313;29;20131;-67
2022/11/03 07:07:46;;;;;;;13.65;3.35;;;8.90;99.90;;;;;;4916811;29;20042;-67
2022/11/03 07:10:12;;;;;;;9.20;2.85;;;8.70;99.90;;;;;;4901152;29;20114;-67
2022/11/03 07:12:38;;;;;;;11.80;2.22;;;8.60;99.90;;;;;;4901035;29;20067;-67
2022/11/03 07:15:19;;;;;;;6.00;2.85;;;8.50;99.90;;;;;;4901452;29;20028;-67
2022/11/03 07:17:44;;;;;;;12.77;3.40;;;8.50;99.90;;;;;;4916984;29;20083;-67
2022/11/03 07:20:15;;;;;;;11.55;3.55;;;8.60;99.90;;;;;;4901339;29;20036;-67
2022/11/03 07:22:42;;;;;;;12.15;3.63;;;8.70;99.90;;;;;;4916576;29;20032;-67
2022/11/03 07:25:18;;;;;;;11.77;3.97;;;8.80;99.90;;;;;;4900727;29;20051;-67
2022/11/03 07:27:48;;;;;;;8.95;3.58;;;8.90;99.90;;;;;;4901143;29;20080;-67
2022/11/03 07:30:23;;;;;;;15.38;4.18;;;9.00;99.90;;;;;;4900627;29;20024;-67
2022/11/03 07:32:52;;;;;;;10.75;3.00;;;8.80;99.90;;;;;;4900805;29;20032;-67
2022/11/03 07:35:17;;;;;;;10.20;3.03;;;8.80;99.90;;;;;;4900571;29;20040;-68
2022/11/03 07:37:44;;;;;;;11.85;3.75;;;8.80;99.90;;;;;;4916536;29;20024;-68
2022/11/03 07:40:17;;;;;;;9.05;3.13;;;8.80;99.90;;;;;;4953273;28;20038;-68
2022/11/03 07:42:42;;;;;;;8.23;2.75;;;8.60;99.90;;;;;;4975781;28;20073;-68
2022/11/03 07:45:34;;;;;;;7.93;2.53;;;8.60;99.90;;;;;;4975767;28;20034;-68
2022/11/03 07:48:15;;;;;;;18.88;3.47;;;8.70;99.90;;;;;;4931448;28;20097;-68
2022/11/03 07:50:41;;;;;;;9.65;2.92;;;8.80;99.90;;;;;;4958272;28;20026;-68
2022/11/03 07:53:36;;;;;;;8.68;2.80;;;8.90;99.90;;;;;;4958205;28;20033;-68
2022/11/03 07:56:32;;;;;;;10.23;4.13;;;9.00;99.90;;;;;;4975780;28;20111;-68
2022/11/03 07:59:03;;;;;;;10.82;3.65;;;9.20;99.90;;;;;;4955157;28;20050;-68
2022/11/03 08:01:33;;;;;;;12.55;3.53;;;9.30;99.90;;;;;;4958149;28;20059;-68
2022/11/03 08:04:04;;;;;;;12.88;3.33;;;9.30;99.90;;;;;;4958147;28;20034;-69
2022/11/03 08:06:30;;;;;;;11.35;2.78;;;9.40;99.90;;;;;;4959018;28;20026;-69
2022/11/03 08:08:56;;;;;;;6.68;2.53;;;9.60;99.90;;;;;;4957752;28;20027;-68
2022/11/03 08:11:23;;;;;;;11.07;2.97;;;9.80;99.90;;;;;;4957233;28;20034;-69
2022/11/03 08:13:50;;;;;;;8.43;3.28;;;9.80;99.90;;;;;;4957954;28;20029;-68
2022/11/03 08:16:16;;;;;;;11.38;2.70;;;9.90;99.90;;;;;;4958911;28;20030;-69
2022/11/03 08:18:41;;;;;;;11.60;2.78;;;10.10;99.90;;;;;;4957913;28;20027;-69
2022/11/03 08:21:07;;;;;;;11.18;2.75;;;10.30;99.90;;;;;;4975178;28;20474;-68
2022/11/03 08:23:32;;;;;;;12.43;3.13;;;10.30;99.90;;;;;;4958821;28;20453;-69
2022/11/03 08:25:58;;;;;;;11.85;3.15;;;10.40;99.90;;;;;;4975163;28;20026;-68
2022/11/03 08:28:24;;;;;;;9.98;2.50;;;10.50;99.90;;;;;;4957638;28;20081;-69
2022/11/03 08:30:49;;;;;;;8.80;2.42;;;10.60;99.90;;;;;;4958451;28;20023;-69
2022/11/03 08:33:15;;;;;;;5.90;2.85;;;10.70;99.90;;;;;;4957731;28;20097;-69
2022/11/03 08:35:41;;;;;;;7.18;2.25;;;10.80;99.90;;;;;;4957329;28;20030;-68
2022/11/03 08:38:06;;;;;;;7.88;2.60;;;10.80;99.90;;;;;;4957789;28;20058;-68
2022/11/03 08:40:32;;;;;;;9.10;2.80;;;10.80;99.90;;;;;;4975066;28;20030;-68
2022/11/03 08:42:57;;;;;;;8.85;2.42;;;10.80;99.90;;;;;;4974542;28;20038;-68
2022/11/03 08:45:23;;;;;;;8.90;3.22;;;10.60;99.90;;;;;;4957768;28;20121;-68
2022/11/03 08:47:48;;;;;;;8.18;2.03;;;10.40;99.90;;;;;;4957554;28;20138;-68
2022/11/03 08:50:14;;;;;;;10.25;2.33;;;10.40;99.90;;;;;;4957237;28;20490;-68
2022/11/03 08:52:40;;;;;;;7.53;2.03;;;10.30;99.90;;;;;;4974975;28;20030;-68
2022/11/03 08:55:05;;;;;;;10.65;1.98;;;10.50;99.90;;;;;;4957313;28;20155;-68
2022/11/03 08:57:31;;;;;;;4.70;1.70;;;10.70;99.90;;;;;;4957290;28;20093;-68
2022/11/03 08:59:57;;;;;;;3.78;1.88;;;11.10;99.90;;;;;;4957318;28;20023;-68
2022/11/03 09:02:23;;;;;;;8.55;1.90;;;11.20;99.90;;;;;;4974751;28;20023;-68
2022/11/03 09:04:48;;;;;;;5.60;2.03;;;11.20;99.90;;;;;;4957251;28;20050;-68
2022/11/03 09:07:14;;;;;;;8.30;2.25;;;11.30;99.90;;;;;;4957124;28;20054;-68
2022/11/03 09:09:39;;;;;;;8.57;1.85;;;11.30;99.90;;;;;;4957153;28;20030;-68
2022/11/03 09:12:05;;;;;;;4.75;1.52;;;11.30;99.90;;;;;;4957195;28;20023;-68
2022/11/03 09:14:30;;;;;;;7.10;2.40;;;11.40;99.90;;;;;;4974486;28;20027;-68
2022/11/03 09:16:56;;;;;;;7.63;1.80;;;11.60;99.90;;;;;;4957028;28;20027;-68
2022/11/03 09:19:22;;;;;;;8.23;2.13;;;11.50;99.90;;;;;;4974400;28;20035;-68
2022/11/03 09:21:47;;;;;;;4.78;1.90;;;11.70;99.90;;;;;;4959695;28;20023;-68
2022/11/03 09:24:13;;;;;;;6.72;1.63;;;11.90;99.90;;;;;;4962048;28;20027;-68
2022/11/03 09:26:41;;;;;;;4.82;1.88;;;12.00;99.90;;;;;;4961076;28;20022;-69
2022/11/03 09:29:06;;;;;;;5.45;1.95;;;12.10;99.90;;;;;;4961662;28;20023;-68
2022/11/03 09:31:32;;;;;;;5.20;1.65;;;12.30;99.90;;;;;;4978167;28;20029;-68
2022/11/03 09:33:57;;;;;;;7.82;2.00;;;12.30;99.90;;;;;;4960729;28;20475;-68
2022/11/03 09:36:23;;;;;;;6.47;1.50;;;12.50;99.90;;;;;;4960680;28;20038;-68
2022/11/03 09:38:48;;;;;;;6.32;2.13;;;12.50;99.90;;;;;;4978034;28;20078;-68
2022/11/03 09:41:16;;;;;;;7.30;1.90;;;12.50;99.90;;;;;;4960586;28;20050;-68
2022/11/03 09:43:46;;;;;;;4.68;2.10;;;12.40;99.90;;;;;;4960975;28;20027;-68
2022/11/03 09:46:14;;;;;;;11.43;2.20;;;12.40;99.90;;;;;;4960659;28;20062;-68
2022/11/03 09:48:39;;;;;;;9.82;2.25;;;12.60;99.90;;;;;;4977888;28;20029;-69
2022/11/03 09:51:09;;;;;;;7.80;2.13;;;12.80;99.90;;;;;;4960527;28;20022;-69
2022/11/03 09:53:35;;;;;;;9.95;2.22;;;12.90;99.90;;;;;;4977719;28;20398;-68
2022/11/03 09:56:00;;;;;;;4.30;1.85;;;12.70;99.90;;;;;;4960310;28;20073;-69
2022/11/03 09:58:26;;;;;;;8.60;1.75;;;12.70;99.90;;;;;;4977826;28;20380;-69
2022/11/03 10:00:52;;;;;;;8.38;2.22;;;12.80;99.90;;;;;;4961021;28;20038;-69
2022/11/03 10:03:19;;;;;;;9.10;2.00;;;12.80;99.90;;;;;;4977551;28;20073;-69
2022/11/03 10:05:45;;;;;;;11.45;2.72;;;13.00;99.90;;;;;;4960131;28;20034;-69
2022/11/03 10:08:21;;;;;;;5.55;2.03;;;12.70;99.90;;;;;;4959936;28;20031;-68
2022/11/03 10:10:47;;;;;;;8.00;2.22;;;12.40;99.90;;;;;;4960107;28;20022;-68
2022/11/03 10:13:34;;;;;;;9.05;2.17;;;12.20;99.90;;;;;;4960367;28;20023;-68
2022/11/03 10:16:03;;;;;;;7.03;2.65;;;12.20;99.90;;;;;;4960673;28;20022;-68
2022/11/03 10:18:29;;;;;;;13.63;2.45;;;12.20;99.90;;;;;;4960043;28;20026;-69
2022/11/03 10:21:05;;;;;;;8.68;2.50;;;12.10;99.90;;;;;;4959927;28;20033;-69
2022/11/03 10:23:31;;;;;;;7.93;2.55;;;12.30;99.90;;;;;;4960734;28;20027;-68
2022/11/03 10:26:09;;;;;;;8.20;2.40;;;12.50;99.90;;;;;;4959881;28;20027;-69
2022/11/03 10:28:34;;;;;;;8.10;2.08;;;12.50;99.90;;;;;;4960021;28;20100;-69
2022/11/03 10:31:06;;;;;;;7.88;2.45;;;12.70;99.90;;;;;;4959710;28;20114;-69
2022/11/03 10:33:35;;;;;;;10.38;2.75;;;13.10;99.90;;;;;;4976342;28;20023;-69
2022/11/03 10:36:14;;;;;;;7.03;2.35;;;13.20;99.90;;;;;;4959943;28;20023;-68
2022/11/03 10:38:42;;;;;;;8.13;2.50;;;13.20;99.90;;;;;;4977342;28;20074;-69
2022/11/03 10:41:12;;;;;;;7.82;1.92;;;13.20;99.90;;;;;;4976876;28;20019;-69
2022/11/03 10:43:39;;;;;;;8.98;2.30;;;13.30;99.90;;;;;;4959542;28;20026;-69
2022/11/03 10:46:18;;;;;;;5.35;2.55;;;13.30;99.90;;;;;;4977624;28;20027;-68
2022/11/03 10:48:43;;;;;;;11.43;2.47;;;13.00;99.90;;;;;;4960334;28;20022;-69
2022/11/03 10:51:11;;;;;;;7.88;2.50;;;13.10;99.90;;;;;;4959393;28;20029;-69
2022/11/03 10:53:37;;;;;;;6.95;2.30;;;13.20;99.90;;;;;;4959356;28;20026;-69
2022/11/03 10:56:03;;;;;;;9.43;2.35;;;13.20;99.90;;;;;;4976500;28;20102;-69
2022/11/03 10:58:30;;;;;;;7.07;2.20;;;13.20;99.90;;;;;;4959331;28;20097;-69
2022/11/03 11:00:55;;;;;;;6.82;2.13;;;13.10;99.90;;;;;;4959244;28;20030;-69
2022/11/03 11:03:21;;;;;;;7.13;2.55;;;12.80;99.90;;;;;;4959254;28;20033;-69
2022/11/03 11:05:47;;;;;;;9.30;2.30;;;12.80;99.90;;;;;;4976867;28;20113;-69
2022/11/03 11:08:21;;;;;;;4.70;2.00;;;12.90;99.90;;;;;;4976344;28;20027;-68
2022/11/03 11:10:47;;;;;;;7.25;2.30;;;12.80;99.90;;;;;;4976326;28;20050;-69
2022/11/03 11:13:21;;;;;;;5.63;1.92;;;13.10;99.90;;;;;;4976294;28;20031;-69
2022/11/03 11:15:56;;;;;;;6.72;2.03;;;13.10;99.90;;;;;;4977313;28;20030;-69
2022/11/03 11:18:30;;;;;;;8.73;1.95;;;13.20;99.90;;;;;;4976433;28;20478;-68
2022/11/03 11:21:15;;;;;;;6.97;2.50;;;13.10;99.90;;;;;;4958845;28;20103;-69
2022/11/03 11:23:40;;;;;;;7.82;2.00;;;13.20;99.90;;;;;;4959414;28;20031;-68
2022/11/03 11:26:08;;;;;;;10.65;2.22;;;13.20;99.90;;;;;;4976014;28;20058;-69
2022/11/03 11:28:38;;;;;;;6.03;2.15;;;13.10;99.90;;;;;;4958690;28;20026;-68
2022/11/03 11:31:31;;;;;;;9.80;2.42;;;13.00;99.90;;;;;;4958680;28;20027;-69
2022/11/03 11:34:09;;;;;;;7.30;1.90;;;13.30;99.90;;;;;;4974308;28;20042;-69
2022/11/03 11:36:40;;;;;;;10.82;2.20;;;13.40;99.90;;;;;;4958764;28;20027;-69
2022/11/03 11:39:21;;;;;;;10.00;2.42;;;13.40;99.90;;;;;;4975905;28;20022;-69
2022/11/03 11:42:31;;;;;;;12.38;2.53;;;13.20;99.90;;;;;;4976058;28;20114;-69
2022/11/03 11:44:59;;;;;;;8.07;2.40;;;12.90;99.90;;;;;;4973254;28;20043;-68
2022/11/03 11:47:44;;;;;;;5.45;2.40;;;12.80;99.90;;;;;;4958517;28;20501;-69
2022/11/03 11:50:15;;;;;;;7.30;2.58;;;12.80;99.90;;;;;;4975848;28;20046;-69
2022/11/03 11:52:49;;;;;;;5.25;2.67;;;13.00;99.90;;;;;;4975834;28;20043;-69
2022/11/03 11:55:21;;;;;;;6.13;2.38;;;13.00;99.90;;;;;;4958283;28;20019;-69
2022/11/03 11:57:46;;;;;;;8.18;2.10;;;12.90;99.90;;;;;;4958504;28;20038;-69
2022/11/03 12:00:23;;;;;;;9.55;2.33;;;13.10;99.90;;;;;;4975576;28;20038;-69
2022/11/03 12:02:50;;;;;;;5.97;2.15;;;13.20;99.90;;;;;;4975769;28;20050;-69
2022/11/03 12:05:22;;;;;;;7.55;2.17;;;13.10;99.90;;;;;;4958069;28;20027;-69
2022/11/03 12:07:47;;;;;;;;;;;13.20;99.90;;;;;;4958948;28;20059;-69
2022/11/03 12:10:16;;;;;;;8.73;2.00;;;13.40;99.90;;;;;;4957934;28;19952;-69
2022/11/03 12:12:41;;;;;;;7.03;2.22;;;13.60;99.90;;;;;;4975248;28;20057;-69
2022/11/03 12:15:45;;;;;;;7.97;2.50;;;13.70;99.90;;;;;;4958733;28;20046;-69
2022/11/03 12:18:33;;;;;;;7.43;2.30;;;13.50;99.90;;;;;;4957633;28;20022;-69
2022/11/03 12:21:00;;;;;;;5.60;2.10;;;13.50;99.90;;;;;;4957799;28;20034;-69
2022/11/03 12:23:41;;;;;;;6.72;2.33;;;13.50;99.90;;;;;;4957752;28;20191;-69
2022/11/03 12:26:39;;;;;;;8.23;2.80;;;13.50;99.90;;;;;;4975249;28;20031;-69
2022/11/03 12:29:04;;;;;;;9.02;2.55;;;13.20;99.90;;;;;;4934574;29;20043;-68
2022/11/03 12:31:30;;;;;;;14.25;3.25;;;13.10;99.90;;;;;;4934314;29;20079;-69
2022/11/03 12:33:56;;;;;;;9.45;2.90;;;13.20;99.90;;;;;;4934365;29;20049;-69
2022/11/03 12:36:21;;;;;;;17.08;4.30;;;13.30;99.90;;;;;;4918758;29;20032;-69
2022/11/03 12:38:47;;;;;;;7.05;2.50;;;13.40;99.90;;;;;;4918640;29;20028;-69
2022/11/03 12:41:23;;;;;;;12.80;3.30;;;13.50;99.90;;;;;;4935064;29;20035;-69
2022/11/03 12:43:49;;;;;;;6.78;3.00;;;13.60;99.90;;;;;;4919265;29;20111;-69
2022/11/03 12:46:16;;;;;;;9.32;3.13;;;13.60;99.90;;;;;;4918449;29;20032;-69
2022/11/03 12:48:42;;;;;;;6.20;2.78;;;13.60;99.90;;;;;;4918321;29;20028;-69
2022/11/03 12:51:23;;;;;;;6.32;2.58;;;13.70;99.90;;;;;;4934254;29;20032;-69
2022/11/03 12:53:50;;;;;;;7.83;2.80;;;13.60;99.90;;;;;;4918436;29;20031;-69
2022/11/03 12:56:16;;;;;;;4.75;2.65;;;13.60;99.90;;;;;;4917815;29;20034;-69
2022/11/03 12:58:42;;;;;;;9.00;3.03;;;13.60;99.90;;;;;;4934728;29;20068;-69
2022/11/03 13:01:08;;;;;;;4.43;2.80;;;13.50;99.90;;;;;;4918210;29;20550;-69
2022/11/03 13:03:35;;;;;;;9.63;2.83;;;13.40;99.90;;;;;;4920646;28;20035;-69
2022/11/03 13:06:03;;;;;;;6.45;2.75;;;13.40;99.90;;;;;;4957430;28;20166;-69
2022/11/03 13:08:29;;;;;;;7.55;2.75;;;13.30;99.90;;;;;;4974613;28;20542;-69
2022/11/03 13:10:55;;;;;;;6.10;3.08;;;13.40;99.90;;;;;;4957227;28;20110;-69
2022/11/03 13:13:20;;;;;;;9.82;3.08;;;13.50;99.90;;;;;;4957194;28;20158;-69
2022/11/03 13:15:46;;;;;;;8.57;3.33;;;13.40;99.90;;;;;;4957931;28;20042;-69
2022/11/03 13:18:11;;;;;;;7.30;3.22;;;13.40;99.90;;;;;;4958166;28;20038;-69